Time;durP1;ratioP1;P1;durP2;ratioP2;P2;SDS_P1;SDS_P2;PMS_P1;PMS_P2;Temp;Humidity;BMP_temperature;BMP_pressure;BME280_temperature;BME280_humidity;BME280_pressure;Samples;Min_cycle;Max_cycle;Signal;HPM_P1;HPM_P2
2022/06/24 00:00:42;;;;;;;12.30;10.93;;;;;26.40;99553.00;;;;2078506;28;20467;-51
2022/06/24 00:01:42;;;;;;;14.93;11.50;;;;;26.40;99556.00;;;;2079011;28;20268;-51
2022/06/24 00:02:48;;;;;;;13.03;11.63;;;;;26.40;99555.00;;;;2079290;28;20208;-51
2022/06/24 00:03:49;;;;;;;11.43;10.23;;;;;26.40;99540.00;;;;2073906;28;20209;-51
2022/06/24 00:04:51;;;;;;;12.73;11.17;;;;;26.40;99555.00;;;;2071712;28;20469;-51
2022/06/24 00:05:51;;;;;;;11.27;10.17;;;;;26.40;99549.00;;;;2071942;28;20214;-51
2022/06/24 00:06:52;;;;;;;11.53;10.43;;;;;26.40;99538.00;;;;2063053;28;20467;-50
2022/06/24 00:07:52;;;;;;;11.90;10.50;;;;;26.40;99525.00;;;;2062289;28;20250;-51
2022/06/24 00:09:01;;;;;;;12.03;10.90;;;;;26.30;99530.00;;;;2071821;28;20310;-50
2022/06/24 00:10:05;;;;;;;12.57;11.27;;;;;26.40;99527.00;;;;2071889;28;20222;-50
2022/06/24 00:11:12;;;;;;;11.73;10.30;;;;;26.40;99528.00;;;;2069957;28;20484;-50
2022/06/24 00:12:13;;;;;;;11.70;10.60;;;;;26.40;99524.00;;;;2072271;28;20897;-51
2022/06/24 00:13:14;;;;;;;12.00;10.57;;;;;26.40;99535.00;;;;2080091;28;20524;-51
2022/06/24 00:14:17;;;;;;;11.57;10.37;;;;;26.40;99524.00;;;;2071150;28;20457;-51
2022/06/24 00:15:24;;;;;;;12.33;11.13;;;;;26.30;99509.00;;;;2070637;28;21049;-51
2022/06/24 00:16:25;;;;;;;12.07;10.90;;;;;26.30;99510.00;;;;2079798;28;20468;-51
2022/06/24 00:17:29;;;;;;;11.20;9.63;;;;;26.40;99506.00;;;;2078297;28;20456;-51
2022/06/24 00:18:30;;;;;;;12.10;10.90;;;;;26.40;99512.00;;;;2079255;28;20268;-50
2022/06/24 00:19:32;;;;;;;10.93;9.83;;;;;26.30;99509.00;;;;2079179;28;20483;-49
2022/06/24 00:20:32;;;;;;;11.67;10.47;;;;;26.30;99489.00;;;;2071047;28;20230;-50
2022/06/24 00:21:32;;;;;;;12.23;11.03;;;;;26.30;99491.00;;;;2062891;28;20898;-49
2022/06/24 00:22:44;;;;;;;12.03;10.77;;;;;26.40;99498.00;;;;2071237;28;20214;-49
2022/06/24 00:23:45;;;;;;;12.23;10.90;;;;;26.40;99489.00;;;;2079410;28;20229;-50
2022/06/24 00:24:45;;;;;;;12.03;10.93;;;;;26.30;99497.00;;;;2079781;28;20805;-50
2022/06/24 00:25:46;;;;;;;11.50;10.30;;;;;26.30;99494.00;;;;2077617;28;20820;-51
2022/06/24 00:26:46;;;;;;;11.23;10.10;;;;;26.30;99502.00;;;;2070972;28;20234;-51
2022/06/24 00:28:04;;;;;;;11.50;10.30;;;;;26.30;99489.00;;;;2073742;28;20678;-51
2022/06/24 00:29:04;;;;;;;13.10;9.80;;;;;26.30;99497.00;;;;2073375;28;20644;-50
2022/06/24 00:30:08;;;;;;;11.37;10.27;;;;;26.40;99494.00;;;;2079063;28;20470;-50
2022/06/24 00:31:09;;;;;;;11.20;10.10;;;;;26.30;99497.00;;;;2071662;28;20597;-50
2022/06/24 00:32:09;;;;;;;11.53;10.33;;;;;26.30;99493.00;;;;2063136;28;20462;-51
2022/06/24 00:33:13;;;;;;;10.17;9.13;;;;;26.30;99495.00;;;;2063016;28;20997;-50
2022/06/24 00:34:23;;;;;;;10.40;9.37;;;;;26.30;99490.00;;;;2071283;28;20685;-52
2022/06/24 00:35:24;;;;;;;11.90;10.47;;;;;26.30;99487.00;;;;2074976;28;20460;-51
2022/06/24 00:36:24;;;;;;;10.30;9.30;;;;;26.30;99484.00;;;;2079052;28;20479;-51
2022/06/24 00:37:29;;;;;;;11.87;10.63;;;;;26.30;99499.00;;;;2070364;28;20226;-50
2022/06/24 00:38:33;;;;;;;10.40;9.30;;;;;26.30;99513.00;;;;2079185;28;21347;-50
2022/06/24 00:39:34;;;;;;;11.33;10.00;;;;;26.30;99438.00;;;;2079698;28;20816;-50
2022/06/24 00:40:34;;;;;;;11.37;10.27;;;;;26.30;99512.00;;;;2079862;28;20484;-50
2022/06/24 00:41:35;;;;;;;10.50;9.50;;;;;26.30;99521.00;;;;2079849;28;20952;-50
2022/06/24 00:42:38;;;;;;;12.03;10.27;;;;;26.30;99542.00;;;;2079310;28;20731;-50
2022/06/24 00:43:42;;;;;;;11.57;9.80;;;;;26.30;99544.00;;;;2079225;28;20221;-51
2022/06/24 00:44:44;;;;;;;10.07;9.13;;;;;26.30;99539.00;;;;2079447;28;20464;-50
2022/06/24 00:45:45;;;;;;;10.97;9.97;;;;;26.40;99556.00;;;;2070689;28;20485;-51
2022/06/24 00:46:46;;;;;;;10.03;9.10;;;;;26.30;99571.00;;;;2071262;28;20833;-51
2022/06/24 00:47:47;;;;;;;10.53;9.50;;;;;26.30;99584.00;;;;2086518;28;20443;-50
2022/06/24 00:48:51;;;;;;;11.53;10.33;;;;;26.30;99575.00;;;;2073449;28;20225;-51
2022/06/24 00:49:52;;;;;;;10.40;9.40;;;;;26.30;99571.00;;;;2071439;28;20479;-51
2022/06/24 00:50:52;;;;;;;10.20;9.20;;;;;26.30;99579.00;;;;2071969;28;20965;-51
2022/06/24 00:51:53;;;;;;;9.63;8.63;;;;;26.30;99580.00;;;;2079211;28;20459;-50
2022/06/24 00:52:55;;;;;;;10.50;9.40;;;;;26.40;99580.00;;;;2079069;28;20228;-50
2022/06/24 00:53:56;;;;;;;10.80;9.70;;;;;26.30;99571.00;;;;2075542;28;20772;-50
2022/06/24 00:54:56;;;;;;;9.90;8.90;;;;;26.30;99571.00;;;;2071504;28;20551;-51
2022/06/24 00:55:57;;;;;;;11.30;9.57;;;;;26.30;99581.00;;;;2071693;28;20857;-50
2022/06/24 00:56:57;;;;;;;11.03;9.40;;;;;26.30;99584.00;;;;2071019;28;20781;-50
2022/06/24 00:57:58;;;;;;;10.37;9.33;;;;;26.30;99592.00;;;;2073763;28;20696;-51
2022/06/24 00:59:00;;;;;;;10.27;9.27;;;;;26.30;99567.00;;;;2079694;28;20265;-50
2022/06/24 01:00:02;;;;;;;9.87;8.97;;;;;26.30;99576.00;;;;2078923;28;20456;-50
2022/06/24 01:01:02;;;;;;;9.40;8.50;;;;;26.30;99576.00;;;;2072293;28;20457;-50
2022/06/24 01:02:06;;;;;;;11.13;10.03;;;;;26.30;99579.00;;;;2071321;28;20464;-50
2022/06/24 01:03:06;;;;;;;9.37;8.53;;;;;26.30;99578.00;;;;2071467;28;20229;-50
2022/06/24 01:04:08;;;;;;;10.53;9.53;;;;;26.30;99587.00;;;;2071354;28;20789;-50
2022/06/24 01:05:09;;;;;;;9.80;8.83;;;;;26.30;99587.00;;;;2074729;28;20312;-50
2022/06/24 01:06:09;;;;;;;9.87;8.87;;;;;26.30;99584.00;;;;2075491;28;20988;-51
2022/06/24 01:07:10;;;;;;;10.30;9.40;;;;;26.30;99594.00;;;;2078994;28;20579;-50
2022/06/24 01:08:13;;;;;;;9.93;8.93;;;;;26.30;99587.00;;;;2078982;28;20224;-50
2022/06/24 01:09:16;;;;;;;10.13;9.13;;;;;26.30;99580.00;;;;2079478;28;20300;-50
2022/06/24 01:10:16;;;;;;;10.10;9.10;;;;;26.30;99592.00;;;;2077710;28;20452;-50
2022/06/24 01:11:40;;;;;;;9.77;8.80;;;;;26.30;99594.00;;;;2071622;28;20465;-50
2022/06/24 01:12:40;;;;;;;9.40;8.50;;;;;26.30;99596.00;;;;2069065;28;20635;-50
2022/06/24 01:13:40;;;;;;;11.00;9.90;;;;;26.30;99601.00;;;;2071260;28;20457;-51
2022/06/24 01:14:41;;;;;;;10.30;9.30;;;;;26.30;99603.00;;;;2071698;28;20303;-51
2022/06/24 01:15:42;;;;;;;10.50;9.40;;;;;26.30;99608.00;;;;2079573;28;20279;-50
2022/06/24 01:16:42;;;;;;;10.00;9.00;;;;;26.30;99607.00;;;;2075869;28;20515;-50
2022/06/24 01:17:42;;;;;;;9.70;8.80;;;;;26.30;99614.00;;;;2078702;28;20225;-50
2022/06/24 01:18:43;;;;;;;10.13;9.13;;;;;26.30;99618.00;;;;2075310;28;20218;-50
2022/06/24 01:19:43;;;;;;;9.47;8.57;;;;;26.30;99617.00;;;;2071259;28;20240;-50
2022/06/24 01:20:43;;;;;;;11.90;9.37;;;;;26.30;99620.00;;;;2071998;28;20214;-50
2022/06/24 01:21:49;;;;;;;9.63;8.73;;;;;26.30;99619.00;;;;2079794;28;20217;-50
2022/06/24 01:22:50;;;;;;;9.73;8.83;;;;;26.30;99610.00;;;;2074769;28;20622;-51
2022/06/24 01:23:50;;;;;;;10.10;9.07;;;;;26.30;99615.00;;;;2076654;28;20514;-51
2022/06/24 01:24:51;;;;;;;9.83;8.93;;;;;26.30;99611.00;;;;2073070;28;21144;-50
2022/06/24 01:25:51;;;;;;;9.63;8.63;;;;;26.30;99618.00;;;;2071121;28;20320;-51
2022/06/24 01:26:56;;;;;;;9.93;8.57;;;;;26.30;99617.00;;;;2071563;28;20226;-50
2022/06/24 01:27:57;;;;;;;9.53;8.60;;;;;26.30;99617.00;;;;2071952;28;20301;-50
2022/06/24 01:28:57;;;;;;;11.03;9.90;;;;;26.30;99614.00;;;;2078761;28;20452;-51
2022/06/24 01:29:57;;;;;;;10.10;8.87;;;;;26.30;99612.00;;;;2079299;28;20214;-51
2022/06/24 01:30:58;;;;;;;10.23;9.23;;;;;26.30;99602.00;;;;2079193;28;20233;-50
2022/06/24 01:31:59;;;;;;;9.07;8.20;;;;;26.30;99602.00;;;;2078622;28;20701;-50
2022/06/24 01:32:59;;;;;;;9.97;8.97;;;;;26.30;99597.00;;;;2078986;28;20232;-51
2022/06/24 01:33:59;;;;;;;9.87;8.87;;;;;26.30;99586.00;;;;2079129;28;20536;-51
2022/06/24 01:35:00;;;;;;;9.27;8.37;;;;;26.30;99594.00;;;;2078934;28;20221;-51
2022/06/24 01:36:00;;;;;;;9.80;8.83;;;;;26.30;99598.00;;;;2073367;28;20627;-51
2022/06/24 01:37:00;;;;;;;10.93;8.30;;;;;26.30;99594.00;;;;2071375;28;20226;-51
2022/06/24 01:38:01;;;;;;;9.57;8.67;;;;;26.30;99592.00;;;;2070519;28;20214;-50
2022/06/24 01:39:02;;;;;;;9.20;8.30;;;;;26.30;99594.00;;;;2071155;28;20279;-51
2022/06/24 01:40:03;;;;;;;9.57;8.67;;;;;26.30;99587.00;;;;2072779;28;20757;-50
2022/06/24 01:41:03;;;;;;;8.80;7.90;;;;;26.30;99585.00;;;;2079039;28;20464;-50
2022/06/24 01:42:04;;;;;;;9.23;8.33;;;;;26.30;99581.00;;;;2079262;28;20796;-50
2022/06/24 01:43:05;;;;;;;9.83;8.93;;;;;26.30;99582.00;;;;2079505;28;20210;-50
2022/06/24 01:44:05;;;;;;;9.93;7.90;;;;;26.30;99584.00;;;;2077271;28;20507;-50
2022/06/24 01:45:06;;;;;;;9.37;8.40;;;;;26.30;99583.00;;;;2071087;28;20226;-50
2022/06/24 01:46:06;;;;;;;9.10;8.20;;;;;26.30;99590.00;;;;2071378;28;20287;-50
2022/06/24 01:47:07;;;;;;;9.60;8.70;;;;;26.30;99594.00;;;;2079200;28;20271;-50
2022/06/24 01:48:07;;;;;;;10.30;9.30;;;;;26.30;99606.00;;;;2072646;28;20721;-50
2022/06/24 01:49:08;;;;;;;8.67;7.83;;;;;26.30;99612.00;;;;2070570;28;20724;-50
2022/06/24 01:50:08;;;;;;;9.30;8.43;;;;;26.30;99609.00;;;;2071350;28;20240;-50
2022/06/24 01:51:10;;;;;;;10.33;8.90;;;;;26.30;99608.00;;;;2071396;28;20218;-51
2022/06/24 01:52:10;;;;;;;9.03;8.13;;;;;26.30;99617.00;;;;2062404;28;20250;-50
2022/06/24 01:53:10;;;;;;;9.27;8.30;;;;;26.30;99612.00;;;;2061834;28;20620;-50
2022/06/24 01:54:11;;;;;;;9.17;8.30;;;;;26.30;99611.00;;;;2070955;28;20230;-50
2022/06/24 01:55:11;;;;;;;9.13;8.23;;;;;26.30;99609.00;;;;2071044;28;20218;-50
2022/06/24 01:56:11;;;;;;;9.23;8.33;;;;;26.30;99617.00;;;;2071211;28;20225;-51
2022/06/24 01:57:12;;;;;;;9.70;8.80;;;;;26.30;99623.00;;;;2071058;28;20214;-50
2022/06/24 01:58:12;;;;;;;9.20;8.30;;;;;26.30;99622.00;;;;2073048;28;20237;-50
2022/06/24 01:59:14;;;;;;;9.73;8.83;;;;;26.30;99626.00;;;;2078954;28;20225;-50
2022/06/24 02:00:15;;;;;;;8.20;7.50;;;;;26.30;99617.00;;;;2079319;28;23124;-50
2022/06/24 02:01:15;;;;;;;9.13;8.23;;;;;26.30;99626.00;;;;2079059;28;20467;-50
2022/06/24 02:02:15;;;;;;;8.63;7.73;;;;;26.30;99618.00;;;;2073518;28;20791;-50
2022/06/24 02:03:16;;;;;;;8.97;8.10;;;;;26.30;99618.00;;;;2079063;28;20229;-50
2022/06/24 02:04:16;;;;;;;8.43;7.60;;;;;26.30;99613.00;;;;2071308;28;20644;-50
2022/06/24 02:05:17;;;;;;;8.27;7.47;;;;;26.30;99616.00;;;;2076639;28;20307;-50
2022/06/24 02:06:20;;;;;;;8.50;7.70;;;;;26.30;99612.00;;;;2075812;28;20321;-50
2022/06/24 02:07:21;;;;;;;9.47;8.57;;;;;26.30;99620.00;;;;2067893;28;20670;-50
2022/06/24 02:08:22;;;;;;;7.70;7.00;;;;;26.30;99622.00;;;;2070366;28;20492;-49
2022/06/24 02:09:22;;;;;;;8.73;7.83;;;;;26.30;99624.00;;;;2071026;28;20468;-50
2022/06/24 02:14:25;;;;;;;8.43;7.73;;;;;26.30;99629.00;;;;2069203;28;20457;-50
2022/06/24 02:15:25;;;;;;;9.93;8.23;;;;;26.30;99620.00;;;;2071132;28;20472;-50
2022/06/24 02:16:26;;;;;;;8.53;7.73;;;;;26.30;99618.00;;;;2069321;28;20621;-50
2022/06/24 02:17:26;;;;;;;7.87;7.10;;;;;26.30;99614.00;;;;2069074;28;20300;-50
2022/06/24 02:18:27;;;;;;;8.77;7.33;;;;;26.30;99611.00;;;;2070361;28;20248;-50
2022/06/24 02:19:27;;;;;;;7.73;7.00;;;;;26.30;99616.00;;;;2070378;28;20662;-55
2022/06/24 02:20:27;;;;;;;8.33;7.53;;;;;26.30;99609.00;;;;2070928;28;20685;-53
2022/06/24 02:21:28;;;;;;;7.27;6.60;;;;;26.30;99606.00;;;;2070986;28;20697;-52
2022/06/24 02:22:28;;;;;;;7.63;6.93;;;;;26.30;99611.00;;;;2070510;28;20605;-50
2022/06/24 02:23:29;;;;;;;8.80;7.63;;;;;26.30;99619.00;;;;2069505;28;20276;-50
2022/06/24 02:24:29;;;;;;;8.13;7.33;;;;;26.30;99616.00;;;;2069561;28;20264;-50
2022/06/24 02:25:29;;;;;;;7.10;6.43;;;;;26.30;99612.00;;;;2070444;28;20682;-51
2022/06/24 02:26:30;;;;;;;8.07;7.27;;;;;26.30;99616.00;;;;2071039;28;20966;-50
2022/06/24 02:27:30;;;;;;;8.80;7.90;;;;;26.30;99626.00;;;;2069910;28;20654;-50
2022/06/24 02:28:30;;;;;;;8.20;7.40;;;;;26.30;99619.00;;;;2070945;28;20694;-51
2022/06/24 02:29:31;;;;;;;7.90;7.20;;;;;26.30;99614.00;;;;2070632;28;20214;-50
2022/06/24 02:30:31;;;;;;;8.47;7.57;;;;;26.30;99622.00;;;;2070895;28;20237;-50
2022/06/24 02:31:31;;;;;;;8.30;7.07;;;;;26.30;99622.00;;;;2070903;28;20214;-50
2022/06/24 02:32:32;;;;;;;7.83;7.13;;;;;26.30;99622.00;;;;2070956;28;20218;-50
2022/06/24 02:33:32;;;;;;;7.57;6.93;;;;;26.30;99618.00;;;;2071029;28;20296;-50
2022/06/24 02:34:33;;;;;;;9.67;8.07;;;;;26.30;99612.00;;;;2070373;28;20220;-50
2022/06/24 02:35:33;;;;;;;8.87;7.70;;;;;26.30;99616.00;;;;2070536;28;20210;-50
2022/06/24 02:36:33;;;;;;;7.93;7.13;;;;;26.30;99612.00;;;;2070638;28;20237;-50
2022/06/24 02:37:34;;;;;;;8.60;7.70;;;;;26.30;99606.00;;;;2066288;28;20683;-50
2022/06/24 02:38:34;;;;;;;8.87;7.47;;;;;26.30;99610.00;;;;2070873;28;20300;-49
2022/06/24 02:39:34;;;;;;;8.27;7.57;;;;;26.30;99605.00;;;;2070778;28;20213;-50
2022/06/24 02:40:51;;;;;;;7.93;7.23;;;;;26.30;99595.00;;;;2070768;28;20214;-51
2022/06/24 02:41:51;;;;;;;7.60;6.90;;;;;26.30;99599.00;;;;2071001;28;20271;-50
2022/06/24 02:42:56;;;;;;;7.10;6.40;;;;;26.30;99598.00;;;;2070946;28;21170;-49
2022/06/24 02:43:56;;;;;;;8.33;7.53;;;;;26.30;99591.00;;;;2070907;28;20218;-50
2022/06/24 02:44:56;;;;;;;8.60;7.80;;;;;26.30;99595.00;;;;2070687;28;21058;-50
2022/06/24 02:46:01;;;;;;;8.00;7.20;;;;;26.30;99588.00;;;;2070868;28;20836;-50
2022/06/24 02:47:01;;;;;;;7.60;6.90;;;;;26.30;99597.00;;;;2070198;28;20237;-51
2022/06/24 02:48:03;;;;;;;8.03;7.17;;;;;26.30;99589.00;;;;2069791;28;20512;-50
2022/06/24 02:49:04;;;;;;;6.93;6.33;;;;;26.30;99595.00;;;;2070784;28;20939;-50
2022/06/24 02:50:04;;;;;;;7.00;6.40;;;;;26.30;99593.00;;;;2070632;28;20469;-49
2022/06/24 02:51:06;;;;;;;7.83;6.80;;;;;26.30;99586.00;;;;2070494;28;20222;-50
2022/06/24 02:52:07;;;;;;;8.73;7.63;;;;;26.30;99579.00;;;;2069498;28;20214;-50
2022/06/24 02:53:08;;;;;;;8.30;7.50;;;;;26.30;99583.00;;;;2070984;28;20487;-50
2022/06/24 02:54:08;;;;;;;7.07;6.43;;;;;26.30;99576.00;;;;2070891;28;20464;-50
2022/06/24 02:55:09;;;;;;;7.10;6.50;;;;;26.30;99576.00;;;;2069903;28;20214;-50
2022/06/24 02:56:11;;;;;;;7.73;6.90;;;;;26.00;99566.00;;;;2070170;28;20221;-50
2022/06/24 02:57:12;;;;;;;6.77;6.07;;;;;26.30;99570.00;;;;2070478;28;20531;-50
2022/06/24 02:58:12;;;;;;;7.60;6.70;;;;;26.30;99567.00;;;;2069877;28;20468;-51
2022/06/24 02:59:12;;;;;;;7.40;6.67;;;;;26.30;99565.00;;;;2070602;28;20579;-50
2022/06/24 03:00:13;;;;;;;7.00;6.33;;;;;26.30;99568.00;;;;2069645;28;20222;-50
2022/06/24 03:01:13;;;;;;;7.73;6.90;;;;;26.10;99571.00;;;;2069871;28;20229;-50
2022/06/24 03:02:14;;;;;;;7.17;6.50;;;;;26.30;99563.00;;;;2070341;28;20527;-50
2022/06/24 03:03:16;;;;;;;7.23;6.50;;;;;26.30;99561.00;;;;2070561;28;20701;-50
2022/06/24 03:04:16;;;;;;;6.73;6.03;;;;;26.30;99564.00;;;;2070574;28;20241;-50
2022/06/24 03:05:17;;;;;;;7.73;7.03;;;;;26.30;99582.00;;;;2070629;28;20563;-50
2022/06/24 03:06:17;;;;;;;7.57;6.87;;;;;26.30;99570.00;;;;2070554;28;20221;-51
2022/06/24 03:07:17;;;;;;;7.70;7.00;;;;;26.30;99571.00;;;;2069836;28;20210;-49
2022/06/24 03:08:19;;;;;;;7.90;7.13;;;;;26.30;99573.00;;;;2070308;28;20218;-51
2022/06/24 03:09:19;;;;;;;6.97;6.27;;;;;26.30;99584.00;;;;2070250;28;20758;-50
2022/06/24 03:10:20;;;;;;;7.20;6.50;;;;;26.30;99578.00;;;;2070570;28;20495;-50
2022/06/24 03:11:20;;;;;;;6.20;5.63;;;;;26.30;99580.00;;;;2075317;28;20227;-51
2022/06/24 03:12:21;;;;;;;7.23;6.53;;;;;26.30;99580.00;;;;2077987;28;20356;-51
2022/06/24 03:13:21;;;;;;;7.00;6.30;;;;;26.30;99583.00;;;;2078096;28;20229;-50
2022/06/24 03:14:22;;;;;;;7.03;6.43;;;;;26.30;99595.00;;;;2077538;28;20221;-51
2022/06/24 03:15:22;;;;;;;7.03;6.33;;;;;26.30;99587.00;;;;2078173;28;20218;-51
2022/06/24 03:16:22;;;;;;;8.07;7.37;;;;;26.30;99586.00;;;;2078667;28;20214;-51
2022/06/24 03:17:23;;;;;;;7.23;6.00;;;;;26.30;99588.00;;;;2075472;28;20233;-50
2022/06/24 03:18:24;;;;;;;7.00;6.07;;;;;26.30;99596.00;;;;2070439;28;20257;-51
2022/06/24 03:19:24;;;;;;;7.47;6.40;;;;;26.30;99581.00;;;;2070107;28;20222;-50
2022/06/24 03:20:25;;;;;;;7.13;6.43;;;;;26.30;99588.00;;;;2070494;28;20473;-51
2022/06/24 03:21:25;;;;;;;7.10;6.40;;;;;26.30;99582.00;;;;2076784;28;20248;-50
2022/06/24 03:22:25;;;;;;;7.53;6.53;;;;;26.30;99581.00;;;;2078718;28;20224;-50
2022/06/24 03:23:26;;;;;;;8.03;6.50;;;;;26.30;99584.00;;;;2077889;28;20222;-50
2022/06/24 03:24:26;;;;;;;7.27;6.60;;;;;26.30;99584.00;;;;2070397;28;20301;-51
2022/06/24 03:25:27;;;;;;;7.00;6.30;;;;;26.30;99582.00;;;;2070630;28;20245;-51
2022/06/24 03:26:27;;;;;;;7.07;6.17;;;;;26.30;99577.00;;;;2070735;28;20622;-51
2022/06/24 03:27:27;;;;;;;7.60;6.87;;;;;26.30;99594.00;;;;2069767;28;20214;-51
2022/06/24 03:28:27;;;;;;;7.07;6.40;;;;;26.30;99585.00;;;;2076533;28;20290;-51
2022/06/24 03:29:28;;;;;;;7.23;6.53;;;;;26.30;99510.00;;;;2078431;28;20245;-50
2022/06/24 03:30:28;;;;;;;7.50;6.33;;;;;26.30;99589.00;;;;2075304;28;20663;-51
2022/06/24 03:31:29;;;;;;;6.50;5.90;;;;;26.30;99589.00;;;;2077263;28;20586;-51
2022/06/24 03:32:29;;;;;;;6.30;5.70;;;;;26.30;99585.00;;;;2077743;28;20213;-50
2022/06/24 03:33:29;;;;;;;7.47;5.83;;;;;26.30;99588.00;;;;2070737;28;20245;-51
2022/06/24 03:34:29;;;;;;;6.73;6.10;;;;;26.30;99591.00;;;;2070357;28;20275;-50
2022/06/24 03:35:30;;;;;;;8.03;5.97;;;;;26.30;99593.00;;;;2070588;28;20214;-50
2022/06/24 03:36:30;;;;;;;6.73;6.03;;;;;26.30;99587.00;;;;2070425;28;20218;-51
2022/06/24 03:37:30;;;;;;;6.90;6.27;;;;;26.30;99584.00;;;;2074708;28;20366;-51
2022/06/24 03:38:31;;;;;;;6.50;5.90;;;;;26.30;99588.00;;;;2078698;28;20565;-50
2022/06/24 03:39:31;;;;;;;6.73;5.43;;;;;26.30;99584.00;;;;2071726;28;20216;-51
2022/06/24 03:40:32;;;;;;;6.97;6.17;;;;;26.30;99579.00;;;;2071030;28;20221;-50
2022/06/24 03:41:33;;;;;;;7.13;6.20;;;;;26.30;99587.00;;;;2077609;28;21620;-50
2022/06/24 03:42:33;;;;;;;7.27;6.57;;;;;26.30;99579.00;;;;2070406;28;20214;-51
2022/06/24 03:43:34;;;;;;;8.03;5.93;;;;;26.30;99583.00;;;;2073616;28;20471;-51
2022/06/24 03:44:34;;;;;;;7.43;6.30;;;;;26.30;99580.00;;;;2070943;28;20217;-50
2022/06/24 03:45:34;;;;;;;6.93;6.30;;;;;26.30;99578.00;;;;2075019;28;20249;-50
2022/06/24 03:46:35;;;;;;;6.20;5.70;;;;;26.30;99589.00;;;;2078636;28;20580;-50
2022/06/24 03:47:35;;;;;;;8.57;6.60;;;;;26.30;99582.00;;;;2075087;28;21053;-50
2022/06/24 03:48:35;;;;;;;7.40;6.60;;;;;26.30;99583.00;;;;2070615;28;20288;-51
2022/06/24 03:49:36;;;;;;;7.17;6.30;;;;;26.30;99587.00;;;;2066713;28;20214;-50
2022/06/24 03:50:36;;;;;;;6.50;5.90;;;;;26.30;99584.00;;;;2070396;28;20221;-50
2022/06/24 03:51:36;;;;;;;6.60;6.00;;;;;26.30;99581.00;;;;2070347;28;20229;-51
2022/06/24 03:52:37;;;;;;;6.67;6.07;;;;;26.30;99580.00;;;;2077411;28;20217;-50
2022/06/24 03:53:37;;;;;;;6.10;5.50;;;;;26.30;99589.00;;;;2078701;28;20572;-50
2022/06/24 03:54:37;;;;;;;6.70;6.00;;;;;26.30;99582.00;;;;2078407;28;20957;-50
2022/06/24 03:55:38;;;;;;;7.53;6.70;;;;;26.30;99586.00;;;;2078601;28;20705;-50
2022/06/24 03:56:38;;;;;;;7.23;6.53;;;;;26.30;99577.00;;;;2078530;28;20608;-50
2022/06/24 03:57:38;;;;;;;6.47;5.87;;;;;26.30;99575.00;;;;2077507;28;20221;-50
2022/06/24 03:58:39;;;;;;;6.87;6.17;;;;;26.30;99572.00;;;;2078380;28;20221;-50
2022/06/24 03:59:39;;;;;;;6.63;6.03;;;;;26.30;99570.00;;;;2078373;28;20218;-50
2022/06/24 04:00:39;;;;;;;6.53;5.93;;;;;26.30;99566.00;;;;2078613;28;20683;-50
2022/06/24 04:01:40;;;;;;;6.10;5.60;;;;;26.30;99574.00;;;;2078535;28;20221;-50
2022/06/24 04:02:40;;;;;;;6.60;6.00;;;;;26.30;99569.00;;;;2078602;28;20232;-50
2022/06/24 04:03:40;;;;;;;6.43;5.83;;;;;26.30;99563.00;;;;2078623;28;20241;-50
2022/06/24 04:04:41;;;;;;;5.97;5.47;;;;;26.30;99560.00;;;;2077556;28;20554;-55
2022/06/24 04:05:41;;;;;;;6.07;5.57;;;;;26.30;99556.00;;;;2077497;28;20264;-52
2022/06/24 04:06:42;;;;;;;6.50;5.60;;;;;26.30;99562.00;;;;2078486;28;20221;-51
2022/06/24 04:07:42;;;;;;;6.30;5.53;;;;;26.20;99565.00;;;;2077798;28;20270;-51
2022/06/24 04:08:42;;;;;;;6.20;5.60;;;;;26.30;99571.00;;;;2078587;28;20218;-51
2022/06/24 04:09:43;;;;;;;5.80;5.20;;;;;26.30;99574.00;;;;2078452;28;20244;-50
2022/06/24 04:10:43;;;;;;;6.33;5.73;;;;;26.30;99573.00;;;;2078441;28;20214;-50
2022/06/24 04:11:43;;;;;;;7.33;6.07;;;;;26.30;99575.00;;;;2078510;28;20229;-51
2022/06/24 04:12:43;;;;;;;6.47;5.83;;;;;26.30;99568.00;;;;2078601;28;20234;-50
2022/06/24 04:13:44;;;;;;;6.50;5.90;;;;;26.30;99565.00;;;;2075457;28;20284;-50
2022/06/24 04:16:04;;;;;;;5.83;5.33;;;;;26.30;99560.00;;;;2078381;28;20317;-50
2022/06/24 04:17:04;;;;;;;6.30;5.73;;;;;26.20;99550.00;;;;2067744;28;20464;-50
2022/06/24 04:18:04;;;;;;;6.43;5.70;;;;;26.30;99557.00;;;;2077063;28;20296;-50
2022/06/24 04:19:05;;;;;;;6.07;5.47;;;;;26.30;99556.00;;;;2077874;28;21158;-50
2022/06/24 04:20:06;;;;;;;6.10;5.50;;;;;26.30;99553.00;;;;2078341;28;20213;-50
2022/06/24 04:21:13;;;;;;;6.07;5.57;;;;;26.30;99548.00;;;;2078328;28;20218;-50
2022/06/24 04:22:13;;;;;;;5.07;4.57;;;;;26.30;99548.00;;;;2078349;28;20452;-51
2022/06/24 04:23:13;;;;;;;5.30;4.70;;;;;26.30;99544.00;;;;2077755;28;20480;-51
2022/06/24 04:24:14;;;;;;;5.87;5.10;;;;;26.20;99536.00;;;;2078448;28;20283;-51
2022/06/24 04:25:14;;;;;;;6.70;6.10;;;;;26.20;99532.00;;;;2073207;28;20226;-50
2022/06/24 04:26:15;;;;;;;6.43;5.33;;;;;26.20;99526.00;;;;2070437;28;20222;-51
2022/06/24 04:27:15;;;;;;;5.77;4.90;;;;;26.30;99532.00;;;;2069736;28;20757;-51
2022/06/24 04:28:16;;;;;;;4.73;4.30;;;;;26.20;99526.00;;;;2073922;28;20543;-50
2022/06/24 04:29:16;;;;;;;4.67;4.27;;;;;26.20;99523.00;;;;2078164;28;20224;-51
2022/06/24 04:30:17;;;;;;;6.03;4.50;;;;;26.20;99530.00;;;;2078275;28;20237;-51
2022/06/24 04:31:17;;;;;;;5.83;5.27;;;;;26.20;99543.00;;;;2078473;28;20221;-50
2022/06/24 04:32:17;;;;;;;6.20;4.83;;;;;26.20;99535.00;;;;2077820;28;20213;-51
2022/06/24 04:33:18;;;;;;;5.30;4.90;;;;;26.20;99534.00;;;;2078532;28;20241;-50
2022/06/24 04:34:18;;;;;;;5.00;4.53;;;;;26.20;99537.00;;;;2078351;28;20291;-50
2022/06/24 04:35:19;;;;;;;7.00;5.27;;;;;26.20;99544.00;;;;2075487;28;20226;-50
2022/06/24 04:36:20;;;;;;;5.27;4.67;;;;;26.20;99544.00;;;;2070227;28;20230;-51
2022/06/24 04:37:20;;;;;;;5.63;5.03;;;;;26.20;99551.00;;;;2074160;28;20475;-50
2022/06/24 04:38:20;;;;;;;5.93;4.83;;;;;26.20;99554.00;;;;2077230;28;20280;-51
2022/06/24 04:39:20;;;;;;;5.67;4.90;;;;;26.20;99547.00;;;;2071626;28;20305;-51
2022/06/24 04:40:21;;;;;;;5.23;4.73;;;;;26.20;99560.00;;;;2069991;28;20233;-51
2022/06/24 04:41:21;;;;;;;4.77;4.37;;;;;26.30;99560.00;;;;2078157;28;20221;-50
2022/06/24 04:42:22;;;;;;;5.53;5.03;;;;;26.20;99563.00;;;;2073271;28;20898;-50
2022/06/24 04:43:22;;;;;;;5.33;4.93;;;;;26.20;99567.00;;;;2070490;28;20573;-51
2022/06/24 04:44:22;;;;;;;6.20;5.57;;;;;26.30;99564.00;;;;2069481;28;20696;-50
2022/06/24 04:45:23;;;;;;;5.03;4.60;;;;;26.30;99568.00;;;;2077324;28;20647;-50
2022/06/24 04:46:23;;;;;;;5.83;5.23;;;;;26.20;99563.00;;;;2078363;28;20225;-50
2022/06/24 04:47:23;;;;;;;4.20;3.80;;;;;26.20;99567.00;;;;2077744;28;20214;-51
2022/06/24 04:48:24;;;;;;;6.27;4.00;;;;;26.20;99556.00;;;;2072405;28;20303;-51
2022/06/24 04:49:24;;;;;;;5.17;4.67;;;;;26.20;99550.00;;;;2071736;28;20214;-51
2022/06/24 04:50:24;;;;;;;5.40;4.90;;;;;26.20;99553.00;;;;2071673;28;20210;-51
2022/06/24 04:51:26;;;;;;;4.90;4.50;;;;;26.20;99560.00;;;;2071637;28;20210;-50
2022/06/24 04:52:27;;;;;;;4.87;4.40;;;;;26.20;99552.00;;;;2071475;28;20241;-51
2022/06/24 04:53:27;;;;;;;4.77;4.37;;;;;26.20;99553.00;;;;2070673;28;20480;-50
2022/06/24 04:54:28;;;;;;;4.90;4.43;;;;;26.20;99556.00;;;;2070261;28;20210;-50
2022/06/24 04:55:28;;;;;;;5.57;4.20;;;;;26.20;99563.00;;;;2070637;28;20222;-51
2022/06/24 04:56:28;;;;;;;5.23;4.17;;;;;26.20;99555.00;;;;2071725;28;20325;-51
2022/06/24 04:57:29;;;;;;;4.50;4.10;;;;;26.20;99553.00;;;;2078117;28;20217;-50
2022/06/24 04:58:29;;;;;;;5.60;4.30;;;;;26.20;99561.00;;;;2071497;28;20240;-50
2022/06/24 04:59:29;;;;;;;4.63;4.23;;;;;26.20;99564.00;;;;2071704;28;20285;-50
2022/06/24 05:00:30;;;;;;;4.60;4.20;;;;;26.20;99565.00;;;;2071589;28;20260;-50
2022/06/24 05:01:30;;;;;;;4.70;4.30;;;;;26.20;99562.00;;;;2071271;28;20221;-50
2022/06/24 05:02:31;;;;;;;4.63;4.20;;;;;26.20;99572.00;;;;2071102;28;20214;-51
2022/06/24 05:03:31;;;;;;;4.73;4.23;;;;;26.20;99576.00;;;;2070963;28;20222;-50
2022/06/24 05:04:31;;;;;;;5.20;4.80;;;;;26.20;99574.00;;;;2071407;28;20222;-51
2022/06/24 05:05:32;;;;;;;5.33;4.83;;;;;26.20;99572.00;;;;2071638;28;21090;-51
2022/06/24 05:06:32;;;;;;;5.00;4.40;;;;;26.20;99574.00;;;;2079393;28;20713;-50
2022/06/24 05:07:32;;;;;;;5.30;3.77;;;;;26.20;99571.00;;;;2078858;28;20335;-50
2022/06/24 05:08:33;;;;;;;5.50;4.73;;;;;26.20;99571.00;;;;2079518;28;20605;-50
2022/06/24 05:09:33;;;;;;;4.80;4.37;;;;;26.20;99566.00;;;;2072993;28;20581;-50